sensor_id;sensor_type;location;lat;lon;timestamp;temperature;humidity
66375;DHT22;53173;52.176;5.314;2023-05-14T00:01:09;14.50;89.10
66375;DHT22;53173;52.176;5.314;2023-05-14T00:03:36;14.50;89.10
66375;DHT22;53173;52.176;5.314;2023-05-14T00:06:25;14.40;89.10
66375;DHT22;53173;52.176;5.314;2023-05-14T00:08:52;14.50;88.80
66375;DHT22;53173;52.176;5.314;2023-05-14T00:11:19;14.30;89.30
66375;DHT22;53173;52.176;5.314;2023-05-14T00:13:46;14.30;89.60
66375;DHT22;53173;52.176;5.314;2023-05-14T00:16:13;14.40;89.80
66375;DHT22;53173;52.176;5.314;2023-05-14T00:18:40;14.80;90.10
66375;DHT22;53173;52.176;5.314;2023-05-14T00:21:07;14.50;90.50
66375;DHT22;53173;52.176;5.314;2023-05-14T00:23:34;14.20;90.00
66375;DHT22;53173;52.176;5.314;2023-05-14T00:26:06;14.40;90.00
66375;DHT22;53173;52.176;5.314;2023-05-14T00:28:33;14.10;89.60
66375;DHT22;53173;52.176;5.314;2023-05-14T00:31:00;14.30;89.20
66375;DHT22;53173;52.176;5.314;2023-05-14T00:33:27;14.50;88.90
66375;DHT22;53173;52.176;5.314;2023-05-14T00:39:02;14.30;88.10
66375;DHT22;53173;52.176;5.314;2023-05-14T00:41:29;14.40;87.90
66375;DHT22;53173;52.176;5.314;2023-05-14T00:43:56;14.40;88.30
66375;DHT22;53173;52.176;5.314;2023-05-14T00:46:28;14.50;87.20
66375;DHT22;53173;52.176;5.314;2023-05-14T00:48:56;15.00;87.10
66375;DHT22;53173;52.176;5.314;2023-05-14T00:51:24;14.40;86.40
66375;DHT22;53173;52.176;5.314;2023-05-14T00:53:51;14.70;86.40
66375;DHT22;53173;52.176;5.314;2023-05-14T00:56:18;14.20;86.20
66375;DHT22;53173;52.176;5.314;2023-05-14T00:58:45;14.20;86.60
66375;DHT22;53173;52.176;5.314;2023-05-14T01:01:12;14.50;86.80
66375;DHT22;53173;52.176;5.314;2023-05-14T01:03:41;13.90;87.00
66375;DHT22;53173;52.176;5.314;2023-05-14T01:14:21;13.60;89.10
66375;DHT22;53173;52.176;5.314;2023-05-14T01:16:51;13.60;88.00
66375;DHT22;53173;52.176;5.314;2023-05-14T01:19:35;13.70;87.70
66375;DHT22;53173;52.176;5.314;2023-05-14T01:22:02;13.80;87.60
66375;DHT22;53173;52.176;5.314;2023-05-14T01:24:29;13.50;87.90
66375;DHT22;53173;52.176;5.314;2023-05-14T01:29:54;13.60;88.80
66375;DHT22;53173;52.176;5.314;2023-05-14T01:32:24;13.30;89.10
66375;DHT22;53173;52.176;5.314;2023-05-14T01:34:54;13.30;88.80
66375;DHT22;53173;52.176;5.314;2023-05-14T01:37:23;13.30;88.60
66375;DHT22;53173;52.176;5.314;2023-05-14T01:39:51;13.30;88.50
66375;DHT22;53173;52.176;5.314;2023-05-14T01:42:19;13.40;88.30
66375;DHT22;53173;52.176;5.314;2023-05-14T01:44:46;13.40;88.10
66375;DHT22;53173;52.176;5.314;2023-05-14T01:47:13;13.30;88.10
66375;DHT22;53173;52.176;5.314;2023-05-14T01:49:40;13.50;88.30
66375;DHT22;53173;52.176;5.314;2023-05-14T01:52:07;13.20;88.00
66375;DHT22;53173;52.176;5.314;2023-05-14T01:54:34;13.40;87.60
66375;DHT22;53173;52.176;5.314;2023-05-14T01:57:01;13.60;87.40
66375;DHT22;53173;52.176;5.314;2023-05-14T01:59:28;13.40;87.10
66375;DHT22;53173;52.176;5.314;2023-05-14T02:01:55;13.60;87.00
66375;DHT22;53173;52.176;5.314;2023-05-14T02:04:22;13.50;87.60
66375;DHT22;53173;52.176;5.314;2023-05-14T02:06:49;13.30;87.80
66375;DHT22;53173;52.176;5.314;2023-05-14T02:09:16;13.20;87.80
66375;DHT22;53173;52.176;5.314;2023-05-14T02:11:43;13.90;88.10
66375;DHT22;53173;52.176;5.314;2023-05-14T02:14:10;13.30;88.00
66375;DHT22;53173;52.176;5.314;2023-05-14T02:17:03;13.10;89.40
66375;DHT22;53173;52.176;5.314;2023-05-14T02:19:29;13.00;89.30
66375;DHT22;53173;52.176;5.314;2023-05-14T02:21:58;12.90;89.70
66375;DHT22;53173;52.176;5.314;2023-05-14T02:24:26;12.80;90.30
66375;DHT22;53173;52.176;5.314;2023-05-14T02:26:53;12.70;90.00
66375;DHT22;53173;52.176;5.314;2023-05-14T02:29:19;12.80;89.90
66375;DHT22;53173;52.176;5.314;2023-05-14T02:31:46;12.90;89.50
66375;DHT22;53173;52.176;5.314;2023-05-14T02:34:14;12.90;89.30
66375;DHT22;53173;52.176;5.314;2023-05-14T02:36:41;12.80;89.30
66375;DHT22;53173;52.176;5.314;2023-05-14T02:39:08;12.80;90.10
66375;DHT22;53173;52.176;5.314;2023-05-14T02:41:35;12.70;89.20
66375;DHT22;53173;52.176;5.314;2023-05-14T02:44:02;12.60;89.80
66375;DHT22;53173;52.176;5.314;2023-05-14T02:46:31;12.70;90.00
66375;DHT22;53173;52.176;5.314;2023-05-14T02:48:58;12.70;89.70
66375;DHT22;53173;52.176;5.314;2023-05-14T02:51:25;13.00;90.00
66375;DHT22;53173;52.176;5.314;2023-05-14T02:53:52;12.60;90.10
66375;DHT22;53173;52.176;5.314;2023-05-14T02:56:19;12.70;90.20
66375;DHT22;53173;52.176;5.314;2023-05-14T02:58:46;12.60;90.10
66375;DHT22;53173;52.176;5.314;2023-05-14T03:01:13;12.70;90.00
66375;DHT22;53173;52.176;5.314;2023-05-14T03:03:41;12.60;89.50
66375;DHT22;53173;52.176;5.314;2023-05-14T03:06:33;12.70;89.20
66375;DHT22;53173;52.176;5.314;2023-05-14T03:09:00;12.70;89.20
66375;DHT22;53173;52.176;5.314;2023-05-14T03:11:27;12.80;89.30
66375;DHT22;53173;52.176;5.314;2023-05-14T03:13:54;12.50;89.30
66375;DHT22;53173;52.176;5.314;2023-05-14T03:16:21;12.50;89.50
66375;DHT22;53173;52.176;5.314;2023-05-14T03:18:48;12.60;90.00
66375;DHT22;53173;52.176;5.314;2023-05-14T03:21:15;12.50;89.60
66375;DHT22;53173;52.176;5.314;2023-05-14T03:23:42;12.30;90.10
66375;DHT22;53173;52.176;5.314;2023-05-14T03:26:15;12.40;90.60
66375;DHT22;53173;52.176;5.314;2023-05-14T03:28:43;12.20;90.70
66375;DHT22;53173;52.176;5.314;2023-05-14T03:31:10;12.10;90.90
66375;DHT22;53173;52.176;5.314;2023-05-14T03:33:37;12.30;91.20
66375;DHT22;53173;52.176;5.314;2023-05-14T03:39:11;12.10;91.30
66375;DHT22;53173;52.176;5.314;2023-05-14T03:41:41;12.10;91.70
66375;DHT22;53173;52.176;5.314;2023-05-14T03:44:08;12.20;91.10
66375;DHT22;53173;52.176;5.314;2023-05-14T03:46:55;12.20;91.40
66375;DHT22;53173;52.176;5.314;2023-05-14T03:49:21;12.40;90.80
66375;DHT22;53173;52.176;5.314;2023-05-14T03:51:49;12.40;90.70
66375;DHT22;53173;52.176;5.314;2023-05-14T03:54:16;12.40;91.10
66375;DHT22;53173;52.176;5.314;2023-05-14T03:56:43;12.50;90.60
66375;DHT22;53173;52.176;5.314;2023-05-14T03:59:10;12.60;90.50
66375;DHT22;53173;52.176;5.314;2023-05-14T04:01:36;12.80;90.70
66375;DHT22;53173;52.176;5.314;2023-05-14T04:04:03;12.40;90.70
66375;DHT22;53173;52.176;5.314;2023-05-14T04:06:36;12.50;90.70
66375;DHT22;53173;52.176;5.314;2023-05-14T04:09:03;12.50;90.70
66375;DHT22;53173;52.176;5.314;2023-05-14T04:11:30;12.90;90.80
66375;DHT22;53173;52.176;5.314;2023-05-14T04:13:58;12.40;90.80
66375;DHT22;53173;52.176;5.314;2023-05-14T04:16:25;12.40;90.70
66375;DHT22;53173;52.176;5.314;2023-05-14T04:18:52;12.50;90.60
66375;DHT22;53173;52.176;5.314;2023-05-14T04:21:19;12.70;90.60
66375;DHT22;53173;52.176;5.314;2023-05-14T04:23:46;12.70;90.60
66375;DHT22;53173;52.176;5.314;2023-05-14T04:26:13;12.90;90.70
66375;DHT22;53173;52.176;5.314;2023-05-14T04:28:40;12.80;90.80
66375;DHT22;53173;52.176;5.314;2023-05-14T04:31:07;12.60;90.90
66375;DHT22;53173;52.176;5.314;2023-05-14T04:33:33;12.60;91.20
66375;DHT22;53173;52.176;5.314;2023-05-14T04:36:01;12.60;91.40
66375;DHT22;53173;52.176;5.314;2023-05-14T04:38:28;12.70;91.50
66375;DHT22;53173;52.176;5.314;2023-05-14T04:40:55;12.60;91.60
66375;DHT22;53173;52.176;5.314;2023-05-14T04:43:22;12.80;92.30
66375;DHT22;53173;52.176;5.314;2023-05-14T04:45:49;12.60;91.80
66375;DHT22;53173;52.176;5.314;2023-05-14T04:48:18;12.70;91.90
66375;DHT22;53173;52.176;5.314;2023-05-14T04:50:44;12.70;92.00
66375;DHT22;53173;52.176;5.314;2023-05-14T04:53:11;12.80;92.10
66375;DHT22;53173;52.176;5.314;2023-05-14T04:55:39;13.00;92.40
66375;DHT22;53173;52.176;5.314;2023-05-14T04:58:06;12.80;92.40
66375;DHT22;53173;52.176;5.314;2023-05-14T05:00:33;13.00;93.40
66375;DHT22;53173;52.176;5.314;2023-05-14T05:03:00;12.70;93.10
66375;DHT22;53173;52.176;5.314;2023-05-14T05:05:32;12.80;93.30
66375;DHT22;53173;52.176;5.314;2023-05-14T05:07:59;12.80;93.50
66375;DHT22;53173;52.176;5.314;2023-05-14T05:10:26;12.80;93.40
66375;DHT22;53173;52.176;5.314;2023-05-14T05:12:53;13.20;93.70
66375;DHT22;53173;52.176;5.314;2023-05-14T05:15:22;13.00;93.60
66375;DHT22;53173;52.176;5.314;2023-05-14T05:17:52;13.00;94.00
66375;DHT22;53173;52.176;5.314;2023-05-14T05:20:19;13.50;94.40
66375;DHT22;53173;52.176;5.314;2023-05-14T05:22:46;13.00;94.60
66375;DHT22;53173;52.176;5.314;2023-05-14T05:25:12;13.00;94.70
66375;DHT22;53173;52.176;5.314;2023-05-14T05:27:39;13.10;94.80
66375;DHT22;53173;52.176;5.314;2023-05-14T05:30:07;13.00;95.70
66375;DHT22;53173;52.176;5.314;2023-05-14T05:32:33;13.10;95.30
66375;DHT22;53173;52.176;5.314;2023-05-14T05:35:26;13.30;95.20
66375;DHT22;53173;52.176;5.314;2023-05-14T05:37:53;13.40;95.20
66375;DHT22;53173;52.176;5.314;2023-05-14T05:40:19;13.40;95.30
66375;DHT22;53173;52.176;5.314;2023-05-14T05:42:46;13.50;95.40
66375;DHT22;53173;52.176;5.314;2023-05-14T05:45:13;13.50;95.50
66375;DHT22;53173;52.176;5.314;2023-05-14T05:47:40;13.70;96.10
66375;DHT22;53173;52.176;5.314;2023-05-14T05:50:07;13.70;95.70
66375;DHT22;53173;52.176;5.314;2023-05-14T05:52:35;13.70;95.90
66375;DHT22;53173;52.176;5.314;2023-05-14T05:55:08;13.70;95.90
66375;DHT22;53173;52.176;5.314;2023-05-14T05:57:35;13.60;96.20
66375;DHT22;53173;52.176;5.314;2023-05-14T06:00:02;13.60;96.40
66375;DHT22;53173;52.176;5.314;2023-05-14T06:02:39;13.70;96.40
66375;DHT22;53173;52.176;5.314;2023-05-14T06:05:11;13.80;96.20
66375;DHT22;53173;52.176;5.314;2023-05-14T06:07:38;14.30;96.60
66375;DHT22;53173;52.176;5.314;2023-05-14T06:10:06;14.30;96.70
66375;DHT22;53173;52.176;5.314;2023-05-14T06:12:33;14.00;96.50
66375;DHT22;53173;52.176;5.314;2023-05-14T06:18:17;14.00;96.50
66375;DHT22;53173;52.176;5.314;2023-05-14T06:20:44;14.00;96.50
66375;DHT22;53173;52.176;5.314;2023-05-14T06:23:11;14.10;96.40
66375;DHT22;53173;52.176;5.314;2023-05-14T06:26:15;14.00;96.40
66375;DHT22;53173;52.176;5.314;2023-05-14T06:28:42;14.10;96.70
66375;DHT22;53173;52.176;5.314;2023-05-14T06:31:08;14.10;96.70
66375;DHT22;53173;52.176;5.314;2023-05-14T06:33:36;14.10;96.70
66375;DHT22;53173;52.176;5.314;2023-05-14T06:36:04;14.10;96.90
66375;DHT22;53173;52.176;5.314;2023-05-14T06:38:31;14.20;96.90
66375;DHT22;53173;52.176;5.314;2023-05-14T06:40:58;14.30;97.20
66375;DHT22;53173;52.176;5.314;2023-05-14T06:43:25;14.40;97.30
66375;DHT22;53173;52.176;5.314;2023-05-14T06:45:52;14.40;97.20
66375;DHT22;53173;52.176;5.314;2023-05-14T06:48:19;14.40;97.30
66375;DHT22;53173;52.176;5.314;2023-05-14T06:50:47;14.40;97.50
66375;DHT22;53173;52.176;5.314;2023-05-14T06:53:14;14.50;97.30
66375;DHT22;53173;52.176;5.314;2023-05-14T06:56:16;15.00;97.50
66375;DHT22;53173;52.176;5.314;2023-05-14T06:58:43;14.60;97.40
66375;DHT22;53173;52.176;5.314;2023-05-14T07:01:10;14.60;97.70
66375;DHT22;53173;52.176;5.314;2023-05-14T07:03:37;14.70;97.70
66375;DHT22;53173;52.176;5.314;2023-05-14T07:06:19;14.70;97.70
66375;DHT22;53173;52.176;5.314;2023-05-14T07:08:46;14.80;97.60
66375;DHT22;53173;52.176;5.314;2023-05-14T07:11:13;14.90;97.60
66375;DHT22;53173;52.176;5.314;2023-05-14T07:13:41;14.90;97.40
66375;DHT22;53173;52.176;5.314;2023-05-14T07:16:13;14.90;97.50
66375;DHT22;53173;52.176;5.314;2023-05-14T07:18:41;14.80;97.20
66375;DHT22;53173;52.176;5.314;2023-05-14T07:21:07;15.00;97.10
66375;DHT22;53173;52.176;5.314;2023-05-14T07:23:34;14.80;96.80
66375;DHT22;53173;52.176;5.314;2023-05-14T07:26:24;14.80;96.70
66375;DHT22;53173;52.176;5.314;2023-05-14T07:28:52;14.80;96.70
66375;DHT22;53173;52.176;5.314;2023-05-14T07:31:18;15.20;96.70
66375;DHT22;53173;52.176;5.314;2023-05-14T07:33:45;15.00;96.60
66375;DHT22;53173;52.176;5.314;2023-05-14T07:36:18;14.90;96.50
66375;DHT22;53173;52.176;5.314;2023-05-14T07:38:44;15.20;96.50
66375;DHT22;53173;52.176;5.314;2023-05-14T07:41:11;15.00;96.50
66375;DHT22;53173;52.176;5.314;2023-05-14T07:43:38;15.30;96.60
66375;DHT22;53173;52.176;5.314;2023-05-14T07:46:11;15.20;96.50
66375;DHT22;53173;52.176;5.314;2023-05-14T07:48:38;15.50;96.90
66375;DHT22;53173;52.176;5.314;2023-05-14T07:51:05;15.40;96.20
66375;DHT22;53173;52.176;5.314;2023-05-14T07:53:31;15.40;96.30
66375;DHT22;53173;52.176;5.314;2023-05-14T07:55:58;15.40;96.10
66375;DHT22;53173;52.176;5.314;2023-05-14T07:58:25;15.40;96.00
66375;DHT22;53173;52.176;5.314;2023-05-14T08:00:53;15.40;96.20
66375;DHT22;53173;52.176;5.314;2023-05-14T08:03:20;15.50;96.10
66375;DHT22;53173;52.176;5.314;2023-05-14T08:05:47;15.70;96.10
66375;DHT22;53173;52.176;5.314;2023-05-14T08:08:14;15.60;95.20
66375;DHT22;53173;52.176;5.314;2023-05-14T08:10:41;15.60;95.10
66375;DHT22;53173;52.176;5.314;2023-05-14T08:13:08;15.60;95.10
66375;DHT22;53173;52.176;5.314;2023-05-14T08:15:40;15.60;95.70
66375;DHT22;53173;52.176;5.314;2023-05-14T08:18:07;15.70;95.00
66375;DHT22;53173;52.176;5.314;2023-05-14T08:20:34;15.60;94.90
66375;DHT22;53173;52.176;5.314;2023-05-14T08:23:01;15.70;95.00
66375;DHT22;53173;52.176;5.314;2023-05-14T08:25:28;15.70;94.80
66375;DHT22;53173;52.176;5.314;2023-05-14T08:27:55;15.70;94.70
66375;DHT22;53173;52.176;5.314;2023-05-14T08:30:22;15.80;94.80
66375;DHT22;53173;52.176;5.314;2023-05-14T08:32:49;15.90;94.70
66375;DHT22;53173;52.176;5.314;2023-05-14T08:35:31;16.00;94.30
66375;DHT22;53173;52.176;5.314;2023-05-14T08:37:58;16.10;94.80
66375;DHT22;53173;52.176;5.314;2023-05-14T08:40:25;16.20;94.30
66375;DHT22;53173;52.176;5.314;2023-05-14T08:42:53;16.20;94.10
66375;DHT22;53173;52.176;5.314;2023-05-14T08:45:30;16.20;93.90
66375;DHT22;53173;52.176;5.314;2023-05-14T08:48:00;16.30;93.50
66375;DHT22;53173;52.176;5.314;2023-05-14T08:50:30;16.50;93.70
66375;DHT22;53173;52.176;5.314;2023-05-14T08:52:57;16.30;93.50
66375;DHT22;53173;52.176;5.314;2023-05-14T08:55:25;16.30;93.70
66375;DHT22;53173;52.176;5.314;2023-05-14T08:57:53;16.50;93.50
66375;DHT22;53173;52.176;5.314;2023-05-14T09:00:21;16.30;93.20
66375;DHT22;53173;52.176;5.314;2023-05-14T09:02:49;16.40;92.80
66375;DHT22;53173;52.176;5.314;2023-05-14T09:05:22;16.50;93.10
66375;DHT22;53173;52.176;5.314;2023-05-14T09:07:49;16.40;92.60
66375;DHT22;53173;52.176;5.314;2023-05-14T09:10:17;16.50;92.60
66375;DHT22;53173;52.176;5.314;2023-05-14T09:12:44;16.60;92.50
66375;DHT22;53173;52.176;5.314;2023-05-14T09:15:17;16.60;92.80
66375;DHT22;53173;52.176;5.314;2023-05-14T09:17:45;16.70;92.70
66375;DHT22;53173;52.176;5.314;2023-05-14T09:20:14;16.70;92.60
66375;DHT22;53173;52.176;5.314;2023-05-14T09:22:42;16.80;92.30
66375;DHT22;53173;52.176;5.314;2023-05-14T09:25:26;16.70;92.20
66375;DHT22;53173;52.176;5.314;2023-05-14T09:27:53;16.70;92.20
66375;DHT22;53173;52.176;5.314;2023-05-14T09:30:24;16.80;92.40
66375;DHT22;53173;52.176;5.314;2023-05-14T09:32:53;16.90;92.50
66375;DHT22;53173;52.176;5.314;2023-05-14T09:35:22;17.00;92.30
66375;DHT22;53173;52.176;5.314;2023-05-14T09:37:52;17.20;92.40
66375;DHT22;53173;52.176;5.314;2023-05-14T09:40:21;17.30;92.20
66375;DHT22;53173;52.176;5.314;2023-05-14T09:42:49;17.30;91.70
66375;DHT22;53173;52.176;5.314;2023-05-14T09:45:21;17.30;91.60
66375;DHT22;53173;52.176;5.314;2023-05-14T09:47:48;17.40;91.60
66375;DHT22;53173;52.176;5.314;2023-05-14T09:50:15;17.50;91.30
66375;DHT22;53173;52.176;5.314;2023-05-14T09:52:42;17.50;90.90
66375;DHT22;53173;52.176;5.314;2023-05-14T09:55:14;17.70;90.80
66375;DHT22;53173;52.176;5.314;2023-05-14T09:57:41;17.80;90.50
66375;DHT22;53173;52.176;5.314;2023-05-14T10:00:09;17.90;90.40
66375;DHT22;53173;52.176;5.314;2023-05-14T10:02:36;18.00;90.40
66375;DHT22;53173;52.176;5.314;2023-05-14T10:05:06;18.00;90.00
66375;DHT22;53173;52.176;5.314;2023-05-14T10:07:46;18.10;89.90
66375;DHT22;53173;52.176;5.314;2023-05-14T10:10:20;18.20;89.40
66375;DHT22;53173;52.176;5.314;2023-05-14T10:12:59;18.20;88.50
66375;DHT22;53173;52.176;5.314;2023-05-14T10:15:42;18.20;87.90
66375;DHT22;53173;52.176;5.314;2023-05-14T10:18:16;18.20;87.70
66375;DHT22;53173;52.176;5.314;2023-05-14T10:20:49;18.40;87.80
66375;DHT22;53173;52.176;5.314;2023-05-14T10:23:19;18.60;87.50
66375;DHT22;53173;52.176;5.314;2023-05-14T10:25:46;18.70;87.10
66375;DHT22;53173;52.176;5.314;2023-05-14T10:28:13;18.80;87.10
66375;DHT22;53173;52.176;5.314;2023-05-14T10:30:43;18.90;86.60
66375;DHT22;53173;52.176;5.314;2023-05-14T10:33:13;19.10;86.30
66375;DHT22;53173;52.176;5.314;2023-05-14T10:36:00;19.20;86.10
66375;DHT22;53173;52.176;5.314;2023-05-14T10:38:28;19.30;84.60
66375;DHT22;53173;52.176;5.314;2023-05-14T10:41:00;19.40;84.80
66375;DHT22;53173;52.176;5.314;2023-05-14T10:43:28;19.40;83.90
66375;DHT22;53173;52.176;5.314;2023-05-14T10:45:57;19.20;82.60
66375;DHT22;53173;52.176;5.314;2023-05-14T10:48:25;19.40;82.70
66375;DHT22;53173;52.176;5.314;2023-05-14T10:50:53;19.50;82.70
66375;DHT22;53173;52.176;5.314;2023-05-14T10:53:36;19.60;82.60
66375;DHT22;53173;52.176;5.314;2023-05-14T10:56:05;19.60;82.10
66375;DHT22;53173;52.176;5.314;2023-05-14T10:58:35;19.80;81.90
66375;DHT22;53173;52.176;5.314;2023-05-14T11:01:03;19.90;81.20
66375;DHT22;53173;52.176;5.314;2023-05-14T11:03:41;19.80;80.50
66375;DHT22;53173;52.176;5.314;2023-05-14T11:06:14;19.90;80.70
66375;DHT22;53173;52.176;5.314;2023-05-14T11:08:42;20.00;80.30
66375;DHT22;53173;52.176;5.314;2023-05-14T11:11:10;19.90;79.50
66375;DHT22;53173;52.176;5.314;2023-05-14T11:13:37;20.00;79.40
66375;DHT22;53173;52.176;5.314;2023-05-14T11:16:09;20.00;79.20
66375;DHT22;53173;52.176;5.314;2023-05-14T11:18:56;20.10;79.20
66375;DHT22;53173;52.176;5.314;2023-05-14T11:21:28;20.00;78.90
66375;DHT22;53173;52.176;5.314;2023-05-14T11:23:55;20.10;79.20
66375;DHT22;53173;52.176;5.314;2023-05-14T11:26:23;20.20;79.30
66375;DHT22;53173;52.176;5.314;2023-05-14T11:28:50;20.30;79.20
66375;DHT22;53173;52.176;5.314;2023-05-14T11:31:17;20.40;78.60
66375;DHT22;53173;52.176;5.314;2023-05-14T11:33:45;20.40;78.60
66375;DHT22;53173;52.176;5.314;2023-05-14T11:36:17;20.40;78.20
66375;DHT22;53173;52.176;5.314;2023-05-14T11:38:47;20.40;78.50
66375;DHT22;53173;52.176;5.314;2023-05-14T11:41:14;20.30;78.40
66375;DHT22;53173;52.176;5.314;2023-05-14T11:43:41;20.30;78.30
66375;DHT22;53173;52.176;5.314;2023-05-14T11:46:17;20.30;78.20
66375;DHT22;53173;52.176;5.314;2023-05-14T11:48:44;20.50;77.80
66375;DHT22;53173;52.176;5.314;2023-05-14T11:51:11;20.60;78.00
66375;DHT22;53173;52.176;5.314;2023-05-14T11:53:38;20.70;78.90
66375;DHT22;53173;52.176;5.314;2023-05-14T11:56:11;20.90;77.50
66375;DHT22;53173;52.176;5.314;2023-05-14T11:58:38;20.90;77.30
66375;DHT22;53173;52.176;5.314;2023-05-14T12:01:05;21.10;77.30
66375;DHT22;53173;52.176;5.314;2023-05-14T12:03:32;21.30;76.70
66375;DHT22;53173;52.176;5.314;2023-05-14T12:06:02;21.50;75.90
66375;DHT22;53173;52.176;5.314;2023-05-14T12:08:32;21.70;75.30
66375;DHT22;53173;52.176;5.314;2023-05-14T12:11:00;21.70;76.10
66375;DHT22;53173;52.176;5.314;2023-05-14T12:13:30;21.70;74.40
66375;DHT22;53173;52.176;5.314;2023-05-14T12:15:59;21.70;74.00
66375;DHT22;53173;52.176;5.314;2023-05-14T12:18:29;21.60;73.40
66375;DHT22;53173;52.176;5.314;2023-05-14T12:21:04;21.70;73.20
66375;DHT22;53173;52.176;5.314;2023-05-14T12:23:33;21.70;73.50
66375;DHT22;53173;52.176;5.314;2023-05-14T12:26:04;21.90;73.30
66375;DHT22;53173;52.176;5.314;2023-05-14T12:28:33;21.80;73.30
66375;DHT22;53173;52.176;5.314;2023-05-14T12:31:03;21.70;71.60
66375;DHT22;53173;52.176;5.314;2023-05-14T12:33:30;21.70;71.40
66375;DHT22;53173;52.176;5.314;2023-05-14T12:35:57;21.60;71.80
66375;DHT22;53173;52.176;5.314;2023-05-14T12:38:39;21.70;72.10
66375;DHT22;53173;52.176;5.314;2023-05-14T12:41:07;21.80;72.70
66375;DHT22;53173;52.176;5.314;2023-05-14T12:43:33;21.80;72.50
66375;DHT22;53173;52.176;5.314;2023-05-14T12:46:00;22.00;72.40
66375;DHT22;53173;52.176;5.314;2023-05-14T12:48:27;22.10;72.20
66375;DHT22;53173;52.176;5.314;2023-05-14T12:50:54;22.20;71.40
66375;DHT22;53173;52.176;5.314;2023-05-14T12:53:21;22.30;71.10
66375;DHT22;53173;52.176;5.314;2023-05-14T12:56:04;22.40;70.60
66375;DHT22;53173;52.176;5.314;2023-05-14T12:58:31;22.40;68.80
66375;DHT22;53173;52.176;5.314;2023-05-14T13:00:58;22.30;69.20
66375;DHT22;53173;52.176;5.314;2023-05-14T13:03:25;22.20;68.80
66375;DHT22;53173;52.176;5.314;2023-05-14T13:05:58;22.40;69.90
66375;DHT22;53173;52.176;5.314;2023-05-14T13:08:25;22.40;69.30
66375;DHT22;53173;52.176;5.314;2023-05-14T13:10:54;22.50;69.00
66375;DHT22;53173;52.176;5.314;2023-05-14T13:13:21;22.60;68.20
66375;DHT22;53173;52.176;5.314;2023-05-14T13:15:54;22.60;67.80
66375;DHT22;53173;52.176;5.314;2023-05-14T13:18:21;22.50;67.80
66375;DHT22;53173;52.176;5.314;2023-05-14T13:20:48;22.50;68.00
66375;DHT22;53173;52.176;5.314;2023-05-14T13:23:15;22.50;68.00
66375;DHT22;53173;52.176;5.314;2023-05-14T13:25:47;22.50;67.70
66375;DHT22;53173;52.176;5.314;2023-05-14T13:28:15;22.60;67.30
66375;DHT22;53173;52.176;5.314;2023-05-14T13:31:04;22.50;66.70
66375;DHT22;53173;52.176;5.314;2023-05-14T13:33:36;22.50;66.50
66375;DHT22;53173;52.176;5.314;2023-05-14T13:36:03;22.50;67.00
66375;DHT22;53173;52.176;5.314;2023-05-14T13:38:30;22.60;67.50
66375;DHT22;53173;52.176;5.314;2023-05-14T13:40:57;22.50;67.20
66375;DHT22;53173;52.176;5.314;2023-05-14T13:43:32;22.40;68.10
66375;DHT22;53173;52.176;5.314;2023-05-14T13:46:00;22.30;68.00
66375;DHT22;53173;52.176;5.314;2023-05-14T13:48:27;22.20;68.40
66375;DHT22;53173;52.176;5.314;2023-05-14T13:50:54;22.20;69.50
66375;DHT22;53173;52.176;5.314;2023-05-14T13:53:22;22.10;69.70
66375;DHT22;53173;52.176;5.314;2023-05-14T13:55:50;22.20;69.70
66375;DHT22;53173;52.176;5.314;2023-05-14T13:58:24;22.20;69.60
66375;DHT22;53173;52.176;5.314;2023-05-14T14:00:52;22.10;69.60
66375;DHT22;53173;52.176;5.314;2023-05-14T14:03:19;22.00;69.70
66375;DHT22;53173;52.176;5.314;2023-05-14T14:05:56;22.10;70.30
66375;DHT22;53173;52.176;5.314;2023-05-14T14:08:23;22.00;71.20
66375;DHT22;53173;52.176;5.314;2023-05-14T14:10:51;21.90;71.80
66375;DHT22;53173;52.176;5.314;2023-05-14T14:13:20;22.10;71.70
66375;DHT22;53173;52.176;5.314;2023-05-14T14:16:04;22.20;71.90
66375;DHT22;53173;52.176;5.314;2023-05-14T14:18:32;22.20;71.80
66375;DHT22;53173;52.176;5.314;2023-05-14T14:20:59;22.20;71.60
66375;DHT22;53173;52.176;5.314;2023-05-14T14:23:26;22.20;71.80
66375;DHT22;53173;52.176;5.314;2023-05-14T14:25:58;22.20;71.00
66375;DHT22;53173;52.176;5.314;2023-05-14T14:28:25;22.10;70.90
66375;DHT22;53173;52.176;5.314;2023-05-14T14:30:52;21.90;70.90
66375;DHT22;53173;52.176;5.314;2023-05-14T14:33:19;21.90;71.50
66375;DHT22;53173;52.176;5.314;2023-05-14T14:35:56;21.80;72.20
66375;DHT22;53173;52.176;5.314;2023-05-14T14:38:23;21.80;72.10
66375;DHT22;53173;52.176;5.314;2023-05-14T14:40:50;21.70;73.70
66375;DHT22;53173;52.176;5.314;2023-05-14T14:43:17;21.80;72.70
66375;DHT22;53173;52.176;5.314;2023-05-14T14:45:54;21.70;72.40
66375;DHT22;53173;52.176;5.314;2023-05-14T14:48:29;21.80;72.80
66375;DHT22;53173;52.176;5.314;2023-05-14T14:50:57;21.80;73.10
66375;DHT22;53173;52.176;5.314;2023-05-14T14:53:24;21.80;74.20
66375;DHT22;53173;52.176;5.314;2023-05-14T14:55:57;21.90;72.90
66375;DHT22;53173;52.176;5.314;2023-05-14T14:58:24;21.90;72.40
66375;DHT22;53173;52.176;5.314;2023-05-14T15:00:53;21.90;73.60
66375;DHT22;53173;52.176;5.314;2023-05-14T15:03:21;21.90;72.30
66375;DHT22;53173;52.176;5.314;2023-05-14T15:05:54;21.90;71.90
66375;DHT22;53173;52.176;5.314;2023-05-14T15:08:25;21.80;70.50
66375;DHT22;53173;52.176;5.314;2023-05-14T15:10:55;21.70;70.50
66375;DHT22;53173;52.176;5.314;2023-05-14T15:13:22;21.80;70.70
66375;DHT22;53173;52.176;5.314;2023-05-14T15:15:56;21.70;69.90
66375;DHT22;53173;52.176;5.314;2023-05-14T15:18:24;21.80;68.60
66375;DHT22;53173;52.176;5.314;2023-05-14T15:20:50;21.70;69.10
66375;DHT22;53173;52.176;5.314;2023-05-14T15:23:18;21.80;68.70
66375;DHT22;53173;52.176;5.314;2023-05-14T15:26:11;21.80;68.10
66375;DHT22;53173;52.176;5.314;2023-05-14T15:28:38;21.80;67.60
66375;DHT22;53173;52.176;5.314;2023-05-14T15:31:05;21.70;68.50
66375;DHT22;53173;52.176;5.314;2023-05-14T15:33:32;21.60;68.60
66375;DHT22;53173;52.176;5.314;2023-05-14T15:35:59;21.70;68.80
66375;DHT22;53173;52.176;5.314;2023-05-14T15:38:26;21.70;68.80
66375;DHT22;53173;52.176;5.314;2023-05-14T15:40:53;21.70;69.00
66375;DHT22;53173;52.176;5.314;2023-05-14T15:43:20;21.70;69.50
66375;DHT22;53173;52.176;5.314;2023-05-14T15:45:52;21.50;69.50
66375;DHT22;53173;52.176;5.314;2023-05-14T15:48:19;21.40;69.80
66375;DHT22;53173;52.176;5.314;2023-05-14T15:50:49;21.40;70.40
66375;DHT22;53173;52.176;5.314;2023-05-14T15:53:17;21.30;70.80
66375;DHT22;53173;52.176;5.314;2023-05-14T15:55:49;21.20;70.90
66375;DHT22;53173;52.176;5.314;2023-05-14T15:58:16;21.20;71.60
66375;DHT22;53173;52.176;5.314;2023-05-14T16:00:43;21.20;72.00
66375;DHT22;53173;52.176;5.314;2023-05-14T16:03:09;21.10;73.30